createdAt,value
2019-05-22T00:05:17.477Z,35.17
2019-05-22T00:10:25.397Z,35.50
2019-05-22T00:15:30.844Z,33.40
2019-05-22T00:20:34.935Z,35.17
2019-05-22T00:25:38.254Z,32.07
2019-05-22T00:30:45.405Z,31.40
2019-05-22T00:35:49.865Z,31.50
2019-05-22T00:40:58.185Z,29.83
2019-05-22T00:46:05.271Z,30.40
2019-05-22T00:51:11.439Z,25.50
2019-05-22T00:56:32.563Z,27.00
2019-05-22T01:01:40.522Z,25.50
2019-05-22T01:06:46.584Z,24.63
2019-05-22T01:11:51.572Z,22.37
2019-05-22T01:16:57.037Z,22.97
2019-05-22T01:22:01.692Z,23.03
2019-05-22T01:27:05.160Z,23.13
2019-05-22T01:32:27.324Z,23.97
2019-05-22T01:37:31.058Z,23.67
2019-05-22T01:42:37.898Z,25.63
2019-05-22T01:47:45.031Z,27.27
2019-05-22T01:52:48.503Z,25.07
2019-05-22T01:57:53.380Z,24.37
2019-05-22T02:02:57.045Z,23.73
2019-05-22T02:08:01.142Z,24.93
2019-05-22T02:13:05.933Z,25.33
2019-05-22T02:18:14.223Z,22.70
2019-05-22T02:23:17.587Z,21.57
2019-05-22T02:28:22.590Z,21.20
2019-05-22T02:33:27.284Z,15.83
2019-05-22T02:38:31.583Z,14.77
2019-05-22T02:43:36.015Z,15.30
2019-05-22T02:48:42.412Z,14.53
2019-05-22T02:53:46.428Z,14.00
2019-05-22T02:58:49.943Z,12.47
2019-05-22T03:03:53.234Z,11.13
2019-05-22T03:09:01.170Z,10.33
2019-05-22T03:14:09.422Z,10.60
2019-05-22T03:19:14.877Z,10.33
2019-05-22T03:24:19.201Z,9.00
2019-05-22T03:29:26.383Z,8.60
2019-05-22T03:34:29.705Z,7.67
2019-05-22T03:39:33.228Z,7.73
2019-05-22T03:44:36.849Z,8.43
2019-05-22T03:49:40.974Z,8.00
2019-05-22T03:54:45.242Z,9.10
2019-05-22T03:59:49.128Z,10.83
2019-05-22T04:04:54.209Z,11.63
2019-05-22T04:09:59.395Z,11.93
2019-05-22T04:15:04.457Z,11.40
2019-05-22T04:20:09.136Z,12.17
2019-05-22T04:25:12.447Z,13.67
2019-05-22T04:30:16.894Z,14.40
2019-05-22T04:35:20.862Z,15.63
2019-05-22T04:40:28.141Z,15.77
2019-05-22T04:45:31.798Z,15.67
2019-05-22T04:50:35.165Z,16.40
2019-05-22T04:55:38.525Z,15.33
2019-05-22T05:00:42.265Z,14.20
2019-05-22T05:05:49.833Z,13.70
2019-05-22T05:10:54.922Z,14.00
2019-05-22T05:15:58.279Z,12.93
2019-05-22T05:21:01.583Z,15.10
2019-05-22T05:26:05.111Z,15.20
2019-05-22T05:31:10.214Z,16.43
2019-05-22T05:36:14.435Z,15.60
2019-05-22T05:41:17.730Z,14.60
2019-05-22T05:46:21.113Z,13.23
2019-05-22T05:51:27.835Z,14.07
2019-05-22T05:56:33.385Z,14.80
2019-05-22T06:01:43.896Z,13.17
2019-05-22T06:06:55.006Z,12.70
2019-05-22T06:12:00.828Z,11.17
2019-05-22T06:17:32.883Z,11.47
2019-05-22T06:22:36.251Z,11.23
2019-05-22T06:27:41.177Z,9.47
2019-05-22T06:33:08.953Z,9.57
2019-05-22T06:38:42.420Z,8.57
2019-05-22T06:43:48.881Z,7.23
2019-05-22T06:48:53.781Z,9.10
2019-05-22T06:53:57.052Z,5.77
2019-05-22T06:59:00.337Z,5.97
2019-05-22T07:04:05.294Z,5.37
2019-05-22T07:09:10.495Z,4.33
2019-05-22T07:14:14.909Z,4.40
2019-05-22T07:19:20.039Z,6.20
2019-05-22T07:24:23.904Z,5.70
2019-05-22T07:29:27.720Z,5.43
2019-05-22T07:34:31.018Z,4.93
2019-05-22T07:39:34.303Z,5.27
2019-05-22T07:44:37.736Z,7.53
2019-05-22T07:49:41.366Z,5.33
2019-05-22T07:54:45.577Z,5.10
2019-05-22T07:59:49.474Z,5.00
2019-05-22T08:04:52.835Z,4.77
2019-05-22T08:09:57.297Z,4.30
2019-05-22T08:15:00.928Z,4.90
2019-05-22T08:20:05.807Z,4.93
2019-05-22T08:25:10.883Z,4.63
2019-05-22T08:30:14.328Z,4.63
2019-05-22T08:35:18.470Z,5.37
2019-05-22T08:40:22.190Z,4.80
2019-05-22T08:45:26.516Z,4.53
2019-05-22T08:50:31.072Z,4.80
2019-05-22T08:55:35.643Z,3.90
2019-05-22T09:00:39.253Z,3.83
2019-05-22T09:05:42.542Z,5.17
2019-05-22T09:10:46.058Z,5.63
2019-05-22T09:15:50.603Z,6.53
2019-05-22T09:20:54.125Z,6.23
2019-05-22T09:25:58.056Z,6.93
2019-05-22T09:31:01.415Z,6.73
2019-05-22T09:36:04.971Z,5.70
2019-05-22T09:41:09.113Z,4.63
2019-05-22T09:46:12.731Z,3.60
2019-05-22T09:51:16.452Z,4.23
2019-05-22T09:56:20.436Z,4.60
2019-05-22T10:01:23.784Z,3.23
2019-05-22T10:06:27.076Z,3.90
2019-05-22T10:11:30.382Z,4.90
2019-05-22T10:16:35.104Z,4.37
2019-05-22T10:21:38.465Z,5.03
2019-05-22T10:26:42.006Z,5.33
2019-05-22T10:31:45.469Z,4.90
2019-05-22T10:36:48.994Z,5.80
2019-05-22T10:41:52.335Z,5.97
2019-05-22T10:46:56.196Z,5.87
2019-05-22T10:51:59.877Z,6.30
2019-05-22T10:57:03.243Z,6.80
2019-05-22T11:02:08.231Z,7.20
2019-05-22T11:07:13.280Z,6.73
2019-05-22T11:12:17.585Z,5.83
2019-05-22T11:17:21.120Z,6.20
2019-05-22T11:22:24.969Z,5.77
2019-05-22T11:27:28.625Z,6.80
2019-05-22T11:32:31.942Z,5.87
2019-05-22T11:37:35.831Z,5.63
2019-05-22T11:42:39.444Z,5.43
2019-05-22T11:47:43.119Z,5.57
2019-05-22T11:52:47.239Z,6.60
2019-05-22T11:57:51.761Z,5.10
2019-05-22T12:02:56.885Z,5.27
2019-05-22T12:08:00.305Z,5.10
2019-05-22T12:13:04.435Z,5.43
2019-05-22T12:18:09.096Z,5.30
2019-05-22T12:23:13.405Z,5.40
2019-05-22T12:28:17.515Z,5.30
2019-05-22T12:33:21.046Z,5.23
2019-05-22T12:38:27.171Z,6.00
2019-05-22T12:43:31.660Z,4.63
2019-05-22T12:48:35.229Z,5.27
2019-05-22T12:53:38.608Z,4.40
2019-05-22T12:58:42.697Z,4.37
2019-05-22T13:03:46.892Z,4.17
2019-05-22T13:08:52.639Z,4.43
2019-05-22T13:13:56.600Z,5.00
2019-05-22T13:19:00.811Z,4.70
2019-05-22T13:24:09.791Z,4.33
2019-05-22T13:29:15.318Z,5.27
2019-05-22T13:34:19.445Z,4.37
2019-05-22T13:39:23.041Z,4.93
2019-05-22T13:44:26.402Z,4.90
2019-05-22T13:49:31.334Z,5.40
2019-05-22T13:54:36.019Z,5.33
2019-05-22T13:59:40.130Z,4.73
2019-05-22T14:04:43.886Z,5.77
2019-05-22T14:09:47.430Z,5.23
2019-05-22T14:14:51.807Z,6.63
2019-05-22T14:19:55.516Z,5.23
2019-05-22T14:24:59.027Z,4.17
2019-05-22T14:30:03.405Z,4.50
2019-05-22T14:35:07.221Z,4.97
2019-05-22T14:40:12.416Z,4.70
2019-05-22T14:45:15.946Z,5.70
2019-05-22T14:50:20.395Z,5.63
2019-05-22T14:55:23.912Z,4.57
2019-05-22T15:00:28.026Z,4.83
2019-05-22T15:05:31.312Z,5.40
2019-05-22T15:10:36.533Z,5.50
2019-05-22T15:15:40.920Z,4.93
2019-05-22T15:20:51.789Z,5.10
2019-05-22T15:25:55.119Z,5.27
2019-05-22T15:30:59.096Z,4.20
2019-05-22T15:36:06.846Z,4.57
2019-05-22T15:41:11.166Z,4.60
2019-05-22T15:46:16.079Z,4.23
2019-05-22T15:51:24.882Z,4.87
2019-05-22T15:56:32.220Z,4.07
2019-05-22T16:01:36.888Z,4.77
2019-05-22T16:06:40.659Z,4.23
2019-05-22T16:11:48.359Z,4.43
2019-05-22T16:16:52.759Z,5.03
2019-05-22T16:21:59.032Z,4.90
2019-05-22T16:27:02.671Z,4.57
2019-05-22T16:32:08.143Z,3.10
2019-05-22T16:37:11.668Z,3.53
2019-05-22T16:42:15.567Z,4.10
2019-05-22T16:47:20.203Z,2.80
2019-05-22T16:52:25.735Z,3.93
2019-05-22T16:57:30.448Z,3.13
2019-05-22T17:02:34.697Z,3.03
2019-05-22T17:07:38.832Z,3.80
2019-05-22T17:12:42.806Z,4.60
2019-05-22T17:17:46.633Z,3.87
2019-05-22T17:22:50.996Z,4.13
2019-05-22T17:27:55.127Z,3.33
2019-05-22T17:32:59.664Z,3.83
2019-05-22T17:38:03.731Z,4.13
2019-05-22T17:43:08.504Z,3.53
2019-05-22T17:48:13.527Z,4.57
2019-05-22T17:53:17.973Z,3.80
2019-05-22T17:58:25.044Z,3.80
2019-05-22T18:03:27.385Z,4.60
2019-05-22T18:08:30.978Z,2.83
2019-05-22T18:13:37.502Z,3.90
2019-05-22T18:18:40.711Z,4.63
2019-05-22T18:23:44.329Z,3.90
2019-05-22T18:28:47.681Z,3.30
2019-05-22T18:33:50.959Z,3.87
2019-05-22T18:38:54.240Z,3.47
2019-05-22T18:43:57.664Z,3.53
2019-05-22T18:49:01.186Z,3.80
2019-05-22T18:54:04.752Z,4.63
2019-05-22T18:59:08.202Z,3.37
2019-05-22T19:04:11.489Z,3.17
2019-05-22T19:09:16.045Z,3.27
2019-05-22T19:14:19.473Z,3.03
2019-05-22T19:19:23.062Z,4.10
2019-05-22T19:24:26.590Z,3.53
2019-05-22T19:29:30.172Z,3.67
2019-05-22T19:34:33.798Z,3.93
2019-05-22T19:39:37.676Z,3.97
2019-05-22T19:44:41.219Z,3.73
2019-05-22T19:49:44.775Z,4.13
2019-05-22T19:54:48.058Z,4.33
2019-05-22T19:59:51.408Z,3.80
2019-05-22T20:04:54.683Z,4.90
2019-05-22T20:09:58.891Z,5.83
2019-05-22T20:15:02.282Z,6.00
2019-05-22T20:20:08.218Z,5.63
2019-05-22T20:25:12.193Z,5.60
2019-05-22T20:30:18.156Z,6.40
2019-05-22T20:35:21.843Z,6.10
2019-05-22T20:40:26.107Z,5.77
2019-05-22T20:45:29.454Z,6.40
2019-05-22T20:50:33.920Z,6.27
2019-05-22T20:55:40.233Z,6.00
2019-05-22T21:00:47.084Z,5.93
2019-05-22T21:05:51.336Z,5.80
2019-05-22T21:10:56.318Z,6.40
2019-05-22T21:15:59.900Z,5.90
2019-05-22T21:21:03.940Z,6.57
2019-05-22T21:26:08.888Z,6.57
2019-05-22T21:31:13.132Z,7.90
2019-05-22T21:36:18.048Z,7.80
2019-05-22T21:41:22.112Z,9.13
2019-05-22T21:46:26.647Z,9.53
2019-05-22T21:51:30.304Z,8.63
2019-05-22T21:56:34.337Z,8.77
2019-05-22T22:01:39.948Z,9.37
2019-05-22T22:06:44.027Z,9.33
2019-05-22T22:11:48.190Z,10.63
2019-05-22T22:16:52.158Z,11.13
2019-05-22T22:21:57.097Z,12.23
2019-05-22T22:27:01.372Z,12.20
2019-05-22T22:32:10.310Z,11.10
2019-05-22T22:37:14.254Z,11.03
2019-05-22T22:42:19.648Z,11.80
2019-05-22T22:47:29.421Z,11.50
2019-05-22T22:52:33.793Z,11.97
2019-05-22T22:57:38.660Z,12.27
2019-05-22T23:02:43.339Z,12.20
2019-05-22T23:07:48.939Z,12.60
2019-05-22T23:12:54.055Z,12.80
2019-05-22T23:17:57.340Z,13.77
2019-05-22T23:22:59.596Z,13.47
2019-05-22T23:28:04.973Z,13.47
2019-05-22T23:33:08.534Z,11.57
2019-05-22T23:38:13.405Z,14.70
2019-05-22T23:43:16.857Z,14.53
2019-05-22T23:48:21.785Z,14.10
2019-05-22T23:53:26.786Z,14.50
2019-05-22T23:58:30.727Z,13.57
